Time;durP1;ratioP1;P1;durP2;ratioP2;P2;SDS_P1;SDS_P2;PMS_P1;PMS_P2;Temp;Humidity;BMP_temperature;BMP_pressure;BME280_temperature;BME280_humidity;BME280_pressure;Samples;Min_cycle;Max_cycle;Signal;HPM_P1;HPM_P2
2021/04/29 00:02:23;;;;;;;3.40;2.45;;;5.80;81.80;;;;;;5095253;28;20044;-87
2021/04/29 00:04:52;;;;;;;4.07;3.13;;;5.80;81.90;;;;;;5098091;28;20069;-86
2021/04/29 00:07:18;;;;;;;3.95;2.92;;;5.80;82.00;;;;;;5102490;28;20038;-87
2021/04/29 00:09:44;;;;;;;4.35;2.75;;;5.70;81.80;;;;;;5103312;28;20447;-86
2021/04/29 00:12:10;;;;;;;5.43;3.28;;;5.70;82.10;;;;;;5097173;28;20017;-86
2021/04/29 00:14:35;;;;;;;4.72;3.50;;;5.70;82.10;;;;;;5064524;28;20024;-87
2021/04/29 00:17:02;;;;;;;4.72;2.60;;;5.70;82.30;;;;;;5092467;28;20024;-88
2021/04/29 00:19:29;;;;;;;3.42;2.55;;;5.70;82.30;;;;;;5096136;28;20078;-87
2021/04/29 00:21:56;;;;;;;3.60;3.08;;;5.70;82.30;;;;;;5096392;28;20020;-87
2021/04/29 00:24:21;;;;;;;4.22;3.00;;;5.70;82.30;;;;;;5098705;28;20043;-87
2021/04/29 00:26:47;;;;;;;4.80;3.13;;;5.70;82.40;;;;;;5098486;28;20020;-86
2021/04/29 00:29:13;;;;;;;4.38;2.88;;;5.70;82.20;;;;;;5078177;28;20048;-86
2021/04/29 00:31:39;;;;;;;3.53;2.60;;;5.70;81.80;;;;;;5089811;28;20070;-86
2021/04/29 00:34:05;;;;;;;4.93;2.72;;;5.70;81.90;;;;;;5069871;28;20036;-87
2021/04/29 00:36:30;;;;;;;4.97;3.13;;;5.70;81.90;;;;;;5095176;28;20031;-87
2021/04/29 00:38:56;;;;;;;3.47;2.83;;;5.70;81.90;;;;;;5085546;28;20389;-86
2021/04/29 00:41:23;;;;;;;4.22;3.30;;;5.60;81.80;;;;;;5091739;28;20056;-87
2021/04/29 00:43:51;;;;;;;5.27;3.03;;;5.60;81.90;;;;;;5077526;28;20026;-86
2021/04/29 00:46:16;;;;;;;4.10;2.80;;;5.60;82.00;;;;;;5096356;28;20265;-86
2021/04/29 00:48:43;;;;;;;5.40;2.63;;;5.60;82.00;;;;;;5096324;28;20035;-86
2021/04/29 00:51:10;;;;;;;4.77;3.00;;;5.60;82.00;;;;;;5102593;28;20052;-87
2021/04/29 00:53:42;;;;;;;5.93;2.70;;;5.60;82.10;;;;;;5103269;28;20421;-85
2021/04/29 00:56:10;;;;;;;4.10;3.15;;;5.60;82.10;;;;;;5102218;28;20260;-86
2021/04/29 00:58:36;;;;;;;5.50;3.72;;;5.60;81.90;;;;;;5097288;28;20099;-88
2021/04/29 01:01:03;;;;;;;6.10;3.33;;;5.50;81.80;;;;;;5097177;28;20024;-88
2021/04/29 01:03:50;;;;;;;3.83;3.20;;;5.50;81.90;;;;;;5095727;28;20099;-87
2021/04/29 01:06:48;;;;;;;6.20;3.42;;;5.50;81.90;;;;;;5095939;28;20146;-86
2021/04/29 01:09:39;;;;;;;4.10;2.95;;;5.40;81.90;;;;;;5078390;28;20024;-89
2021/04/29 01:12:17;;;;;;;5.22;3.65;;;5.50;82.20;;;;;;5095465;28;20020;-86
2021/04/29 01:14:44;;;;;;;5.03;3.70;;;5.40;82.10;;;;;;5077322;28;20062;-87
2021/04/29 01:17:11;;;;;;;4.03;2.95;;;5.40;82.10;;;;;;5096390;28;20016;-86
2021/04/29 01:19:47;;;;;;;5.30;2.93;;;5.40;82.10;;;;;;5077808;28;20224;-88
2021/04/29 01:22:14;;;;;;;4.43;2.97;;;5.30;82.10;;;;;;5095285;28;20012;-86
2021/04/29 01:25:01;;;;;;;5.15;3.15;;;5.30;82.30;;;;;;5060833;28;20031;-86
2021/04/29 01:27:28;;;;;;;5.50;3.70;;;5.30;82.40;;;;;;5096452;28;20020;-86
2021/04/29 01:29:54;;;;;;;4.63;4.20;;;5.20;82.50;;;;;;5096829;28;20093;-86
2021/04/29 01:32:20;;;;;;;4.38;3.20;;;5.30;82.60;;;;;;5096451;28;20105;-87
2021/04/29 01:34:48;;;;;;;5.35;3.13;;;5.20;82.40;;;;;;5076854;28;20092;-86
2021/04/29 01:37:15;;;;;;;4.43;3.35;;;5.30;82.50;;;;;;5076615;28;20423;-87
2021/04/29 01:39:42;;;;;;;4.95;3.30;;;5.30;82.40;;;;;;5095324;28;20024;-85
2021/04/29 01:42:10;;;;;;;3.95;2.83;;;5.30;82.30;;;;;;5075832;28;20055;-86
2021/04/29 01:44:37;;;;;;;4.07;2.65;;;5.30;82.10;;;;;;5094500;28;20028;-85
2021/04/29 01:47:03;;;;;;;5.95;3.33;;;5.30;82.20;;;;;;5094346;28;20020;-86
2021/04/29 01:49:29;;;;;;;6.57;3.97;;;5.30;82.10;;;;;;5095649;28;20504;-85
2021/04/29 01:51:56;;;;;;;4.65;3.10;;;5.30;81.80;;;;;;5091657;28;20048;-88
2021/04/29 01:54:23;;;;;;;3.85;3.03;;;5.30;81.70;;;;;;5086281;28;20326;-89
2021/04/29 01:56:49;;;;;;;5.38;3.13;;;5.20;81.80;;;;;;5094871;28;20047;-88
2021/04/29 01:59:15;;;;;;;3.70;3.08;;;5.20;82.10;;;;;;5095217;28;20509;-87
2021/04/29 02:01:44;;;;;;;4.20;3.20;;;5.10;82.10;;;;;;5077838;28;20362;-89
2021/04/29 02:04:11;;;;;;;5.10;3.60;;;5.20;82.30;;;;;;5106695;28;20012;-87
2021/04/29 02:06:38;;;;;;;4.47;3.63;;;5.10;82.40;;;;;;5094936;28;20053;-89
2021/04/29 02:09:06;;;;;;;4.25;3.17;;;5.00;82.60;;;;;;5101050;28;20031;-87
2021/04/29 02:11:35;;;;;;;4.47;2.88;;;5.00;82.80;;;;;;5102176;28;20024;-86
2021/04/29 02:14:04;;;;;;;5.90;3.38;;;4.90;83.10;;;;;;5089021;28;20034;-88
2021/04/29 02:16:41;;;;;;;4.60;3.10;;;4.90;83.30;;;;;;5096961;28;20048;-89
2021/04/29 02:19:08;;;;;;;4.70;2.90;;;4.80;83.60;;;;;;5095281;28;20020;-90
2021/04/29 02:21:37;;;;;;;8.13;3.70;;;4.80;83.80;;;;;;5094210;28;20044;-86
2021/04/29 02:24:04;;;;;;;6.00;3.55;;;4.70;84.10;;;;;;5093234;28;20020;-87
2021/04/29 02:26:34;;;;;;;4.85;3.65;;;4.70;84.30;;;;;;5093789;28;20034;-87
2021/04/29 02:29:00;;;;;;;5.55;3.38;;;4.60;84.50;;;;;;5092959;28;20059;-88
2021/04/29 02:31:26;;;;;;;5.70;3.57;;;4.60;84.80;;;;;;5094513;28;20020;-87
2021/04/29 02:33:52;;;;;;;5.22;3.72;;;4.60;85.10;;;;;;5093043;28;20328;-88
2021/04/29 02:36:18;;;;;;;5.68;3.65;;;4.60;85.00;;;;;;5093161;28;20530;-88
2021/04/29 02:38:44;;;;;;;4.65;3.75;;;4.60;85.10;;;;;;5075696;28;20035;-87
2021/04/29 02:41:11;;;;;;;5.90;4.13;;;4.60;85.20;;;;;;5075503;28;20469;-88
2021/04/29 02:43:38;;;;;;;4.05;3.20;;;4.70;85.60;;;;;;5075150;28;20032;-88
2021/04/29 02:46:04;;;;;;;5.75;3.38;;;4.90;85.60;;;;;;5092763;28;20043;-88
2021/04/29 02:48:30;;;;;;;4.93;3.50;;;4.90;85.20;;;;;;5075111;28;20024;-89
2021/04/29 02:51:01;;;;;;;6.10;3.40;;;5.00;84.80;;;;;;5094184;28;20024;-87
2021/04/29 02:53:27;;;;;;;4.80;3.60;;;5.00;84.40;;;;;;5081858;28;20019;-89
2021/04/29 02:55:52;;;;;;;4.50;3.17;;;5.00;84.20;;;;;;5095891;28;20028;-88
2021/04/29 02:58:19;;;;;;;3.63;3.20;;;5.00;84.20;;;;;;5101525;28;20072;-90
2021/04/29 03:00:46;;;;;;;5.90;4.00;;;5.00;84.30;;;;;;5099744;28;20507;-89
2021/04/29 03:03:12;;;;;;;9.63;4.22;;;5.10;84.40;;;;;;5098238;28;20054;-88
2021/04/29 03:05:39;;;;;;;4.85;3.97;;;5.20;84.30;;;;;;5104108;28;20050;-88
2021/04/29 03:08:07;;;;;;;5.90;3.80;;;5.20;83.90;;;;;;5097440;28;20074;-85
2021/04/29 03:10:33;;;;;;;5.85;3.80;;;5.30;83.70;;;;;;5074922;28;20020;-88
2021/04/29 03:12:59;;;;;;;5.15;3.45;;;5.40;83.40;;;;;;5074780;28;20095;-87
2021/04/29 03:15:25;;;;;;;4.93;3.67;;;5.50;82.90;;;;;;5092393;28;20040;-87
2021/04/29 03:17:51;;;;;;;4.38;3.30;;;5.50;82.40;;;;;;5092644;28;20412;-86
2021/04/29 03:20:17;;;;;;;5.07;3.15;;;5.60;82.20;;;;;;5078660;28;20024;-86
2021/04/29 03:22:43;;;;;;;5.57;3.60;;;5.60;81.70;;;;;;5092665;28;20044;-87
2021/04/29 03:25:09;;;;;;;5.35;3.47;;;5.70;81.20;;;;;;5092331;28;20024;-87
2021/04/29 03:27:35;;;;;;;4.03;3.08;;;5.70;81.10;;;;;;5092398;28;20035;-88
2021/04/29 03:30:01;;;;;;;6.10;3.35;;;5.70;80.50;;;;;;5093161;28;20032;-88
2021/04/29 03:32:27;;;;;;;4.25;3.50;;;5.80;80.30;;;;;;5099075;28;20066;-87
2021/04/29 03:34:52;;;;;;;6.00;3.15;;;5.80;80.20;;;;;;5094022;28;20031;-87
2021/04/29 03:37:18;;;;;;;4.05;3.33;;;5.80;79.70;;;;;;5093400;28;20532;-87
2021/04/29 03:39:44;;;;;;;4.65;2.90;;;5.90;79.50;;;;;;5092920;28;20089;-87
2021/04/29 03:42:11;;;;;;;5.72;3.85;;;5.90;79.10;;;;;;5074772;28;20020;-87
2021/04/29 03:44:40;;;;;;;6.05;4.25;;;6.00;79.00;;;;;;5093123;28;20513;-89
2021/04/29 03:47:07;;;;;;;4.60;3.17;;;6.00;78.70;;;;;;5092910;28;20095;-86
2021/04/29 03:49:33;;;;;;;4.50;3.20;;;6.00;78.50;;;;;;5096900;28;20031;-86
2021/04/29 03:51:59;;;;;;;7.35;3.53;;;6.20;78.40;;;;;;5079239;28;20020;-85
2021/04/29 03:54:25;;;;;;;6.80;3.33;;;6.20;77.70;;;;;;5098150;28;20023;-87
2021/04/29 03:56:52;;;;;;;5.53;3.58;;;6.20;76.70;;;;;;5096632;28;20488;-88
2021/04/29 03:59:18;;;;;;;5.30;3.53;;;6.20;76.40;;;;;;5083906;28;20115;-87
2021/04/29 04:01:44;;;;;;;4.43;3.50;;;6.30;76.10;;;;;;5093689;28;20055;-84
2021/04/29 04:04:10;;;;;;;5.25;3.63;;;6.40;75.80;;;;;;5095969;28;20489;-83
2021/04/29 04:06:35;;;;;;;5.63;4.13;;;6.30;75.70;;;;;;5096705;28;20239;-89
2021/04/29 04:09:01;;;;;;;6.03;3.80;;;6.30;75.80;;;;;;5098110;28;20028;-87
2021/04/29 04:11:27;;;;;;;5.90;3.47;;;6.30;76.00;;;;;;5097440;28;20031;-86
2021/04/29 04:13:53;;;;;;;5.72;4.13;;;6.40;76.10;;;;;;5089096;28;20028;-86
2021/04/29 04:16:19;;;;;;;5.15;3.60;;;6.40;75.80;;;;;;5107375;28;20042;-86
2021/04/29 04:18:45;;;;;;;6.28;3.90;;;6.50;75.90;;;;;;5089436;28;20028;-88
2021/04/29 04:21:11;;;;;;;7.97;4.28;;;6.60;75.60;;;;;;5096639;28;20500;-87
2021/04/29 04:23:37;;;;;;;5.63;3.50;;;6.60;75.10;;;;;;5098391;28;20028;-86
2021/04/29 04:26:03;;;;;;;5.07;3.42;;;6.60;74.90;;;;;;5113174;28;20016;-91
2021/04/29 04:28:29;;;;;;;7.43;3.92;;;6.60;74.90;;;;;;5103951;28;20354;-89
2021/04/29 04:30:55;;;;;;;4.60;3.50;;;6.60;74.70;;;;;;5099968;28;20012;-91
2021/04/29 04:33:21;;;;;;;5.22;3.42;;;6.60;75.20;;;;;;5103203;28;20032;-89
2021/04/29 04:35:48;;;;;;;4.97;3.95;;;6.70;75.40;;;;;;5104386;28;20028;-91
2021/04/29 04:38:14;;;;;;;7.05;3.80;;;6.90;75.00;;;;;;5079658;28;20028;-90
2021/04/29 04:40:39;;;;;;;4.38;3.13;;;7.00;74.90;;;;;;5096608;28;20036;-88
2021/04/29 04:43:05;;;;;;;5.18;3.28;;;7.20;75.30;;;;;;5095717;28;20028;-87
2021/04/29 04:45:31;;;;;;;6.80;4.10;;;7.80;73.80;;;;;;5096556;28;20016;-87
2021/04/29 04:47:57;;;;;;;8.07;3.58;;;8.60;70.70;;;;;;5090666;28;20039;-89
2021/04/29 04:50:23;;;;;;;4.75;3.40;;;9.30;67.10;;;;;;5075680;28;20142;-90
2021/04/29 04:52:49;;;;;;;5.13;3.85;;;9.90;64.80;;;;;;5095205;28;20024;-91
2021/04/29 04:55:15;;;;;;;7.18;3.63;;;10.50;63.10;;;;;;5089992;28;20024;-91
2021/04/29 04:57:41;;;;;;;4.70;3.78;;;11.10;59.90;;;;;;5114697;28;20069;-89
2021/04/29 05:00:08;;;;;;;4.45;3.63;;;11.60;59.10;;;;;;5112364;28;20036;-92
2021/04/29 05:02:38;;;;;;;5.78;3.53;;;12.30;57.90;;;;;;5099192;28;20385;-89
2021/04/29 05:05:04;;;;;;;7.60;3.63;;;13.10;54.00;;;;;;5096467;28;20035;-90
2021/04/29 05:07:32;;;;;;;5.23;3.37;;;13.30;52.40;;;;;;5096694;28;20473;-91
2021/04/29 05:09:58;;;;;;;7.32;3.90;;;13.90;50.90;;;;;;5097021;28;20034;-91
2021/04/29 05:12:24;;;;;;;5.97;4.38;;;14.30;49.10;;;;;;5096784;28;20092;-90
2021/04/29 05:14:50;;;;;;;4.75;4.05;;;15.00;48.60;;;;;;5095537;28;20385;-90
2021/04/29 05:17:16;;;;;;;7.20;3.22;;;15.60;46.70;;;;;;5095343;28;20020;-90
2021/04/29 05:19:44;;;;;;;7.45;3.88;;;15.70;45.60;;;;;;5096103;28;20353;-89
2021/04/29 05:22:10;;;;;;;4.13;3.10;;;16.10;45.00;;;;;;5081435;28;20023;-90
2021/04/29 05:24:38;;;;;;;4.77;3.53;;;16.50;42.60;;;;;;5109235;28;20081;-89
2021/04/29 05:27:04;;;;;;;5.10;3.80;;;16.70;43.00;;;;;;5098523;28;20268;-89
2021/04/29 05:29:30;;;;;;;6.47;3.78;;;17.20;41.70;;;;;;5098812;28;20502;-92
2021/04/29 05:31:55;;;;;;;5.32;3.70;;;17.70;40.80;;;;;;5099239;28;20058;-90
2021/04/29 05:34:21;;;;;;;3.88;3.47;;;18.40;39.40;;;;;;5102962;28;20044;-91
2021/04/29 05:36:47;;;;;;;4.05;3.40;;;18.50;38.00;;;;;;5084861;28;20032;-93
2021/04/29 05:39:13;;;;;;;4.55;3.05;;;18.70;37.20;;;;;;5099152;28;20112;-91
2021/04/29 05:41:39;;;;;;;5.75;3.63;;;19.30;36.50;;;;;;5092877;28;20414;-92
2021/04/29 05:44:05;;;;;;;5.18;3.47;;;19.70;35.60;;;;;;5093818;28;20024;-89
2021/04/29 05:46:31;;;;;;;3.50;3.17;;;19.50;35.60;;;;;;5094465;28;20021;-89
2021/04/29 05:48:57;;;;;;;4.35;3.60;;;20.30;34.20;;;;;;5065474;28;20036;-90
2021/04/29 05:51:22;;;;;;;7.18;3.22;;;20.60;33.80;;;;;;5094686;28;20112;-90
2021/04/29 05:53:51;;;;;;;3.88;3.08;;;21.00;33.10;;;;;;5096237;28;20043;-91
2021/04/29 05:56:18;;;;;;;4.57;3.40;;;21.90;31.90;;;;;;5098961;28;20035;-91
2021/04/29 05:58:43;;;;;;;3.17;2.88;;;22.00;31.00;;;;;;5103072;28;20055;-90
2021/04/29 06:01:11;;;;;;;5.80;2.65;;;22.60;30.00;;;;;;5104617;28;20020;-90
2021/04/29 06:03:37;;;;;;;;;;;22.80;29.90;;;;;;5103507;28;20066;-92
2021/04/29 06:06:03;;;;;;;3.33;2.58;;;23.90;32.20;;;;;;5084653;28;19911;-90
2021/04/29 06:08:29;;;;;;;4.43;2.45;;;24.30;28.30;;;;;;5100053;28;20035;-90
2021/04/29 06:10:55;;;;;;;5.15;3.13;;;23.70;28.10;;;;;;5083972;28;20081;-90
2021/04/29 06:13:21;;;;;;;5.65;2.95;;;23.50;28.00;;;;;;5104287;28;20073;-90
2021/04/29 06:15:46;;;;;;;3.20;2.38;;;23.40;28.30;;;;;;5105509;28;20041;-90
2021/04/29 06:18:12;;;;;;;4.35;3.00;;;23.50;27.70;;;;;;5101831;28;20028;-92
2021/04/29 06:20:40;;;;;;;4.53;2.95;;;23.80;27.30;;;;;;5099948;28;20027;-89
2021/04/29 06:23:07;;;;;;;4.43;3.10;;;24.10;27.40;;;;;;5097628;28;20389;-91
2021/04/29 06:25:33;;;;;;;4.03;2.55;;;24.50;26.70;;;;;;5079830;28;20538;-90
2021/04/29 06:27:59;;;;;;;6.03;3.33;;;24.60;26.50;;;;;;5099386;28;20032;-91
2021/04/29 06:30:26;;;;;;;3.58;2.50;;;24.60;26.80;;;;;;5073497;28;20053;-89
2021/04/29 06:32:52;;;;;;;3.25;2.95;;;24.90;25.70;;;;;;5094404;28;20031;-91
2021/04/29 06:35:18;;;;;;;3.58;2.50;;;24.90;26.40;;;;;;5076251;28;20027;-85
2021/04/29 06:37:44;;;;;;;5.22;2.15;;;24.60;25.40;;;;;;5088192;28;20028;-89
2021/04/29 06:40:12;;;;;;;2.75;2.47;;;24.30;25.50;;;;;;5093975;28;20077;-86
2021/04/29 06:42:38;;;;;;;3.05;2.40;;;24.40;25.20;;;;;;5092180;28;20055;-86
2021/04/29 06:45:05;;;;;;;3.30;2.22;;;23.00;25.60;;;;;;5086807;28;20028;-84
2021/04/29 06:47:33;;;;;;;10.77;2.78;;;21.00;26.80;;;;;;5068378;28;20024;-88
2021/04/29 06:49:58;;;;;;;;;;;19.40;28.30;;;;;;5102998;28;20031;-89
2021/04/29 06:52:25;;;;;;;4.10;2.58;;;19.20;29.90;;;;;;5097528;28;19908;-90
2021/04/29 06:54:50;;;;;;;4.78;2.47;;;19.50;29.70;;;;;;5092205;28;20444;-87
2021/04/29 06:57:17;;;;;;;4.03;2.47;;;20.90;28.90;;;;;;5095025;28;20020;-87
2021/04/29 06:59:43;;;;;;;2.95;2.00;;;21.80;27.80;;;;;;5094010;28;20032;-87
2021/04/29 07:02:09;;;;;;;3.38;2.30;;;22.30;27.10;;;;;;5093723;28;20012;-86
2021/04/29 07:04:35;;;;;;;4.80;2.87;;;22.60;26.60;;;;;;5094064;28;20032;-86
2021/04/29 07:07:02;;;;;;;3.85;2.67;;;23.40;26.30;;;;;;5093073;28;20016;-87
2021/04/29 07:09:27;;;;;;;3.03;2.40;;;24.70;25.80;;;;;;5094861;28;20099;-86
2021/04/29 07:11:54;;;;;;;2.67;2.28;;;26.10;25.00;;;;;;5081762;28;20052;-87
2021/04/29 07:14:21;;;;;;;5.53;2.20;;;26.30;23.90;;;;;;5092992;28;20046;-87
2021/04/29 07:16:47;;;;;;;3.10;2.05;;;25.90;23.90;;;;;;5090915;28;20261;-87
2021/04/29 07:19:14;;;;;;;5.50;2.97;;;26.40;24.10;;;;;;5092417;28;20063;-89
2021/04/29 07:21:40;;;;;;;3.50;2.00;;;27.30;23.80;;;;;;5093811;28;20027;-88
2021/04/29 07:24:07;;;;;;;3.80;2.33;;;28.00;23.10;;;;;;5094862;28;20024;-88
2021/04/29 07:26:36;;;;;;;2.08;1.58;;;28.30;23.10;;;;;;5094495;28;20149;-85
2021/04/29 07:29:03;;;;;;;2.63;1.98;;;26.80;22.40;;;;;;5099187;28;20044;-88
2021/04/29 07:31:29;;;;;;;3.80;2.35;;;24.30;23.70;;;;;;5069883;28;20033;-88
2021/04/29 07:33:59;;;;;;;3.95;2.35;;;22.40;25.40;;;;;;5066702;28;20573;-88
2021/04/29 07:36:25;;;;;;;5.32;2.35;;;22.10;26.00;;;;;;5071656;28;20020;-86
2021/04/29 07:38:54;;;;;;;2.08;1.85;;;22.50;25.80;;;;;;5080742;28;20086;-88
2021/04/29 07:41:24;;;;;;;4.20;2.40;;;23.40;25.30;;;;;;5096550;28;20016;-87
2021/04/29 07:43:50;;;;;;;2.40;1.77;;;24.10;24.10;;;;;;5100228;28;20485;-89
2021/04/29 07:46:26;;;;;;;4.13;2.33;;;22.50;24.20;;;;;;5098755;28;20381;-87
2021/04/29 07:48:52;;;;;;;6.35;3.97;;;20.70;25.80;;;;;;5065221;28;20056;-87
2021/04/29 07:51:18;;;;;;;3.50;2.55;;;19.40;27.40;;;;;;5098977;28;20016;-88
2021/04/29 07:53:44;;;;;;;3.97;2.20;;;17.90;28.20;;;;;;5099552;28;20497;-87
2021/04/29 07:56:11;;;;;;;8.07;3.00;;;17.50;28.80;;;;;;5098909;28;20031;-87
2021/04/29 07:58:36;;;;;;;4.15;2.55;;;18.70;29.10;;;;;;5079287;28;20043;-88
2021/04/29 08:01:08;;;;;;;4.53;2.75;;;21.20;27.80;;;;;;5100321;28;20031;-88
2021/04/29 08:03:36;;;;;;;4.57;2.40;;;22.40;25.40;;;;;;5079115;28;20494;-88
2021/04/29 08:06:05;;;;;;;2.53;2.20;;;21.30;25.70;;;;;;5097215;28;20450;-88
2021/04/29 08:08:38;;;;;;;4.00;2.38;;;20.60;26.60;;;;;;5098009;28;20084;-89
2021/04/29 08:11:04;;;;;;;2.42;2.08;;;19.60;27.20;;;;;;5082618;28;20058;-89
2021/04/29 08:13:30;;;;;;;3.45;2.65;;;18.30;27.80;;;;;;5078321;28;20020;-87
2021/04/29 08:15:58;;;;;;;3.45;2.15;;;17.50;28.80;;;;;;5083423;28;20068;-90
2021/04/29 08:18:24;;;;;;;3.10;2.03;;;16.80;29.10;;;;;;5091803;28;20032;-89
2021/04/29 08:20:50;;;;;;;4.40;2.15;;;16.90;29.50;;;;;;5080219;28;20563;-89
2021/04/29 08:23:16;;;;;;;4.10;2.00;;;18.80;28.80;;;;;;5078611;28;20024;-87
2021/04/29 08:25:42;;;;;;;2.92;2.22;;;20.90;26.90;;;;;;5096050;28;20496;-87
2021/04/29 08:28:08;;;;;;;2.38;1.80;;;21.60;25.80;;;;;;5078146;28;20389;-87
2021/04/29 08:30:34;;;;;;;3.47;1.90;;;20.90;26.10;;;;;;5096526;28;20039;-88
2021/04/29 08:33:04;;;;;;;5.70;2.35;;;20.00;26.60;;;;;;5077008;28;20028;-87
2021/04/29 08:35:30;;;;;;;3.40;2.13;;;18.60;27.70;;;;;;5097493;28;20016;-87
2021/04/29 08:37:56;;;;;;;6.25;2.40;;;17.20;29.20;;;;;;5096138;28;20024;-89
2021/04/29 08:40:23;;;;;;;8.50;4.57;;;16.30;29.50;;;;;;5095785;28;20032;-89
2021/04/29 08:42:50;;;;;;;4.18;2.45;;;15.50;30.40;;;;;;5077454;28;20073;-87
2021/04/29 08:45:16;;;;;;;4.30;2.45;;;15.40;30.90;;;;;;5082255;28;20035;-89
2021/04/29 08:47:42;;;;;;;5.20;2.50;;;15.70;30.30;;;;;;5102471;28;20031;-89
2021/04/29 08:50:09;;;;;;;4.18;2.53;;;16.00;30.40;;;;;;5098215;28;20015;-88
2021/04/29 08:52:38;;;;;;;2.80;2.17;;;16.40;30.20;;;;;;5098506;28;20035;-86
2021/04/29 08:55:06;;;;;;;4.75;2.38;;;16.50;30.10;;;;;;5079042;28;20028;-88
2021/04/29 08:57:32;;;;;;;;;;;16.10;30.30;;;;;;5105583;28;20024;-87
2021/04/29 08:59:58;;;;;;;3.10;2.33;;;15.70;30.60;;;;;;5084223;28;19912;-88
2021/04/29 09:02:35;;;;;;;2.70;2.10;;;15.10;31.20;;;;;;5096291;28;20085;-87
2021/04/29 09:05:15;;;;;;;6.83;2.73;;;14.50;31.80;;;;;;5096178;28;20012;-89
2021/04/29 09:07:57;;;;;;;2.95;2.08;;;14.10;32.70;;;;;;5095949;28;20385;-88
2021/04/29 09:10:37;;;;;;;8.27;4.22;;;14.00;32.60;;;;;;5073586;28;20462;-88
2021/04/29 09:13:20;;;;;;;6.28;2.60;;;13.80;33.50;;;;;;5070677;28;20400;-88
2021/04/29 09:15:48;;;;;;;5.57;2.80;;;13.90;33.70;;;;;;5067127;28;20055;-87
2021/04/29 09:18:19;;;;;;;3.60;2.58;;;14.00;34.20;;;;;;5096382;28;20125;-86
2021/04/29 09:20:53;;;;;;;4.32;2.25;;;14.60;33.40;;;;;;5097783;28;20028;-87
2021/04/29 09:23:32;;;;;;;5.80;2.42;;;14.90;32.50;;;;;;5081586;28;20016;-87
2021/04/29 09:26:00;;;;;;;6.45;2.33;;;14.80;31.70;;;;;;5077517;28;20112;-87
2021/04/29 09:28:36;;;;;;;5.32;2.20;;;14.50;32.90;;;;;;5094916;28;20284;-89
2021/04/29 09:31:11;;;;;;;4.53;2.40;;;14.30;32.60;;;;;;5098269;28;20035;-87
2021/04/29 09:33:40;;;;;;;4.93;2.63;;;14.10;32.80;;;;;;5094549;28;20044;-87
2021/04/29 09:36:07;;;;;;;4.32;2.42;;;13.90;32.90;;;;;;5077229;28;20016;-89
2021/04/29 09:38:35;;;;;;;;;;;13.60;33.20;;;;;;5077967;28;20052;-87
2021/04/29 09:41:01;;;;;;;7.32;2.20;;;13.40;33.30;;;;;;5101485;28;19949;-87
2021/04/29 09:43:27;;;;;;;3.58;2.53;;;13.10;34.20;;;;;;5106936;28;20032;-88
2021/04/29 09:45:58;;;;;;;5.32;3.10;;;13.00;34.40;;;;;;5099481;28;20092;-89
2021/04/29 09:48:35;;;;;;;5.78;2.53;;;12.80;35.10;;;;;;5078047;28;20159;-89
2021/04/29 09:51:01;;;;;;;7.00;4.07;;;12.80;35.00;;;;;;5096033;28;20038;-87
2021/04/29 09:53:40;;;;;;;6.82;3.60;;;12.70;35.40;;;;;;5095245;28;20107;-90
2021/04/29 09:56:10;;;;;;;2.80;1.83;;;12.90;35.30;;;;;;5077168;28;20077;-88
2021/04/29 09:58:37;;;;;;;4.50;2.40;;;12.90;34.80;;;;;;5093830;28;20028;-86
2021/04/29 10:01:06;;;;;;;3.90;2.47;;;12.80;34.70;;;;;;5095223;28;20020;-87
2021/04/29 10:03:33;;;;;;;6.93;2.88;;;13.00;34.80;;;;;;5096471;28;20024;-88
2021/04/29 10:05:59;;;;;;;5.38;2.83;;;13.10;35.30;;;;;;5095934;28;20016;-88
2021/04/29 10:08:30;;;;;;;4.28;2.33;;;13.40;34.60;;;;;;5077113;28;20097;-87
2021/04/29 10:10:57;;;;;;;7.10;2.75;;;13.60;34.40;;;;;;5088986;28;20131;-88
2021/04/29 10:13:30;;;;;;;2.90;2.00;;;13.80;34.20;;;;;;5081009;28;20019;-87
2021/04/29 10:15:57;;;;;;;6.47;3.42;;;13.60;33.80;;;;;;5095179;28;20103;-87
2021/04/29 10:18:24;;;;;;;6.75;3.28;;;13.70;34.70;;;;;;5081537;28;20024;-87
2021/04/29 10:20:51;;;;;;;6.00;3.53;;;13.90;34.10;;;;;;5086447;28;20024;-86
2021/04/29 10:23:21;;;;;;;;;;;14.10;34.10;;;;;;5077872;28;20447;-88
2021/04/29 10:26:00;;;;;;;7.63;2.65;;;14.30;34.20;;;;;;5079267;28;19999;-86
2021/04/29 10:28:46;;;;;;;3.92;2.70;;;14.00;33.40;;;;;;5094213;28;20377;-87
2021/04/29 10:31:19;;;;;;;3.65;3.28;;;14.10;33.80;;;;;;5093899;28;20082;-88
2021/04/29 10:33:52;;;;;;;3.55;2.50;;;14.30;33.20;;;;;;5096484;28;20020;-88
2021/04/29 10:36:19;;;;;;;6.57;3.38;;;14.50;33.10;;;;;;5072591;28;20480;-89
2021/04/29 10:38:45;;;;;;;5.65;2.42;;;14.70;32.90;;;;;;5074317;28;20037;-88
2021/04/29 10:41:21;;;;;;;5.15;2.35;;;14.80;32.40;;;;;;5093764;28;20024;-88
2021/04/29 10:43:47;;;;;;;5.97;3.30;;;15.00;32.40;;;;;;5078167;28;20024;-86
2021/04/29 10:46:25;;;;;;;5.78;3.05;;;15.10;32.10;;;;;;5098025;28;20499;-88
2021/04/29 10:48:52;;;;;;;5.85;3.00;;;15.20;32.20;;;;;;5082200;28;20087;-88
2021/04/29 10:51:29;;;;;;;6.93;3.03;;;15.40;32.30;;;;;;5109678;28;20036;-86
2021/04/29 10:54:06;;;;;;;5.85;3.15;;;15.50;31.50;;;;;;5080353;28;20052;-89
2021/04/29 10:56:32;;;;;;;5.40;3.25;;;15.50;31.80;;;;;;5095906;28;20024;-88
2021/04/29 10:59:10;;;;;;;5.57;2.80;;;15.60;31.20;;;;;;5098305;28;20038;-87
2021/04/29 11:01:44;;;;;;;4.60;2.22;;;15.40;30.70;;;;;;5099082;28;20023;-89
2021/04/29 11:04:20;;;;;;;7.95;2.60;;;15.00;31.50;;;;;;5102131;28;20117;-90
2021/04/29 11:06:48;;;;;;;7.30;2.72;;;15.00;31.30;;;;;;5097541;28;20016;-88
2021/04/29 11:09:22;;;;;;;;;;;15.20;31.90;;;;;;5080708;28;20024;-86
2021/04/29 11:12:02;;;;;;;9.35;3.10;;;15.20;31.60;;;;;;5080970;28;20340;-87
2021/04/29 11:14:44;;;;;;;8.27;3.38;;;14.70;31.70;;;;;;5097945;28;20028;-86
2021/04/29 11:17:24;;;;;;;5.10;2.80;;;14.50;32.20;;;;;;5079025;28;20123;-90
2021/04/29 11:19:53;;;;;;;3.83;2.25;;;14.50;32.40;;;;;;5079917;28;20135;-87
2021/04/29 11:22:25;;;;;;;12.75;7.25;;;14.40;33.00;;;;;;5099159;28;20024;-88
2021/04/29 11:24:53;;;;;;;4.22;2.63;;;14.30;32.70;;;;;;5118680;28;20066;-88
2021/04/29 11:27:28;;;;;;;9.10;2.97;;;14.20;32.50;;;;;;5087488;28;20020;-88
2021/04/29 11:30:05;;;;;;;7.63;2.70;;;14.00;33.30;;;;;;5086331;28;20051;-89
2021/04/29 11:32:36;;;;;;;5.70;2.70;;;13.80;33.00;;;;;;5102833;28;20042;-88
2021/04/29 11:35:15;;;;;;;5.38;2.60;;;13.60;33.20;;;;;;5086659;28;20512;-87
2021/04/29 11:37:43;;;;;;;6.70;4.88;;;13.50;33.80;;;;;;5087946;28;20047;-87
2021/04/29 11:40:14;;;;;;;3.85;2.35;;;13.40;33.80;;;;;;5098138;28;20036;-87
2021/04/29 11:42:45;;;;;;;5.68;2.72;;;13.10;34.40;;;;;;5083585;28;20016;-87
2021/04/29 11:45:12;;;;;;;3.45;2.33;;;13.10;34.50;;;;;;5104194;28;20082;-87
2021/04/29 11:48:25;;;;;;;6.28;3.00;;;13.10;34.70;;;;;;5097543;28;20016;-87
2021/04/29 11:50:55;;;;;;;6.60;3.10;;;13.10;34.70;;;;;;5024095;28;20024;-88
2021/04/29 11:53:31;;;;;;;10.70;2.78;;;13.30;34.50;;;;;;5097499;28;20020;-87
2021/04/29 11:56:00;;;;;;;10.15;2.67;;;13.40;34.00;;;;;;5096908;28;20111;-88
2021/04/29 11:58:26;;;;;;;3.72;2.60;;;13.60;34.50;;;;;;5078750;28;20020;-87
2021/04/29 12:00:54;;;;;;;3.60;2.50;;;13.70;33.70;;;;;;5096245;28;20064;-88
2021/04/29 12:03:24;;;;;;;4.40;2.80;;;13.90;33.40;;;;;;5078104;28;20013;-89
2021/04/29 12:05:51;;;;;;;4.63;2.60;;;14.00;33.60;;;;;;5095581;28;20389;-89
2021/04/29 12:08:26;;;;;;;5.20;2.22;;;14.00;32.80;;;;;;5091332;28;20077;-88
2021/04/29 12:10:59;;;;;;;5.18;2.97;;;14.00;32.80;;;;;;5096434;28;20032;-85
2021/04/29 12:13:34;;;;;;;7.05;3.13;;;14.00;33.00;;;;;;5077874;28;20370;-87
2021/04/29 12:16:03;;;;;;;4.70;2.60;;;14.10;33.40;;;;;;5079076;28;20477;-86
2021/04/29 12:18:30;;;;;;;8.55;2.75;;;14.00;33.10;;;;;;5098392;28;20034;-86
2021/04/29 12:20:57;;;;;;;7.90;2.57;;;14.20;33.20;;;;;;5089632;28;20016;-86
2021/04/29 12:23:23;;;;;;;5.23;2.73;;;14.20;33.20;;;;;;5102559;28;20024;-86
2021/04/29 12:26:00;;;;;;;5.57;2.47;;;14.20;33.00;;;;;;5097926;28;20078;-86
2021/04/29 12:28:36;;;;;;;6.60;2.85;;;14.10;32.70;;;;;;5102464;28;20143;-87
2021/04/29 12:31:17;;;;;;;10.90;3.30;;;14.10;32.80;;;;;;5082070;28;20043;-86
2021/04/29 12:34:05;;;;;;;6.75;3.20;;;14.00;33.60;;;;;;5095555;28;20016;-87
2021/04/29 12:36:33;;;;;;;7.05;3.05;;;14.10;33.70;;;;;;5095643;28;20081;-86
2021/04/29 12:38:59;;;;;;;4.32;2.75;;;14.00;33.40;;;;;;5096624;28;20028;-87
2021/04/29 12:41:29;;;;;;;6.03;2.50;;;14.00;32.90;;;;;;5080310;28;20028;-87
2021/04/29 12:44:03;;;;;;;8.80;2.97;;;13.70;32.90;;;;;;5078435;28;20024;-88
2021/04/29 12:46:35;;;;;;;4.75;2.40;;;13.60;33.90;;;;;;5096502;28;20038;-89
2021/04/29 12:49:03;;;;;;;7.18;2.65;;;13.60;33.80;;;;;;5096299;28;20098;-86
2021/04/29 12:51:29;;;;;;;4.38;2.53;;;13.50;34.00;;;;;;5079043;28;20031;-87
2021/04/29 12:53:58;;;;;;;4.15;2.60;;;13.30;33.90;;;;;;5100196;28;20404;-87
2021/04/29 12:56:36;;;;;;;5.85;2.38;;;13.10;33.70;;;;;;5099261;28;20032;-88
2021/04/29 12:59:15;;;;;;;5.53;3.50;;;13.10;34.10;;;;;;5096094;28;20028;-87
2021/04/29 13:01:42;;;;;;;4.60;2.50;;;13.20;34.90;;;;;;5094696;28;20532;-88